createdAt,value
2022-12-11T00:00:05.713Z,0.7
2022-12-11T00:02:03.559Z,0.7
2022-12-11T00:04:03.004Z,0.7
2022-12-11T00:06:05.964Z,0.6
2022-12-11T00:08:03.238Z,0.9
2022-12-11T00:10:04.511Z,0.7
2022-12-11T00:12:04.813Z,0.6
2022-12-11T00:14:02.982Z,0.7
2022-12-11T00:16:02.951Z,0.6
2022-12-11T00:18:02.894Z,0.5
2022-12-11T00:20:03.048Z,0.7
2022-12-11T00:22:03.076Z,0.7
2022-12-11T00:24:03.076Z,0.6
2022-12-11T00:26:06.884Z,0.6
2022-12-11T00:28:02.950Z,0.7
2022-12-11T00:30:02.892Z,0.6
2022-12-11T00:32:02.995Z,0.6
2022-12-11T00:34:03.989Z,0.9
2022-12-11T00:36:03.864Z,1.3
2022-12-11T00:38:02.926Z,0.6
2022-12-11T00:40:03.655Z,0.7
2022-12-11T00:42:02.996Z,0.9
2022-12-11T00:44:03.263Z,0.8
2022-12-11T00:46:04.258Z,0.8
2022-12-11T00:48:03.621Z,5.7
2022-12-11T00:50:03.597Z,0.9
2022-12-11T00:52:02.908Z,0.9
2022-12-11T00:54:04.530Z,2.1
2022-12-11T00:56:09.510Z,1.2
2022-12-11T00:58:03.135Z,1.3
2022-12-11T01:00:03.954Z,6.0
2022-12-11T01:02:03.129Z,2.6
2022-12-11T01:04:03.129Z,1.8
2022-12-11T01:06:02.950Z,1.3
2022-12-11T01:08:04.526Z,4.3
2022-12-11T01:10:12.210Z,4.7
2022-12-11T01:12:02.979Z,1.9
2022-12-11T01:14:03.064Z,1.9
2022-12-11T01:16:08.242Z,1.3
2022-12-11T01:18:02.947Z,1.1
2022-12-11T01:20:04.160Z,1.0
2022-12-11T01:22:03.673Z,1.2
2022-12-11T01:24:02.920Z,1.0
2022-12-11T01:26:08.068Z,3.9
2022-12-11T01:28:02.912Z,2.9
2022-12-11T01:30:02.977Z,1.2
2022-12-11T01:32:03.166Z,0.8
2022-12-11T01:34:03.131Z,1.1
2022-12-11T01:36:07.555Z,0.8
2022-12-11T01:38:02.963Z,1.0
2022-12-11T01:40:04.394Z,0.9
2022-12-11T01:42:02.975Z,1.0
2022-12-11T01:44:06.833Z,1.8
2022-12-11T01:46:03.303Z,1.2
2022-12-11T01:48:06.831Z,1.8
2022-12-11T01:50:03.854Z,1.2
2022-12-11T01:52:09.346Z,1.5
2022-12-11T01:54:08.185Z,1.0
2022-12-11T01:56:05.330Z,1.0
2022-12-11T01:58:04.326Z,0.9
2022-12-11T02:00:03.418Z,0.8
2022-12-11T02:02:06.709Z,0.9
2022-12-11T02:04:04.130Z,0.9
2022-12-11T02:06:03.725Z,0.9
2022-12-11T02:08:04.484Z,1.1
2022-12-11T02:10:03.594Z,1.0
2022-12-11T02:12:08.520Z,1.0
2022-12-11T02:14:10.858Z,0.7
2022-12-11T02:16:14.151Z,0.8
2022-12-11T02:18:14.668Z,0.9
2022-12-11T02:20:11.923Z,0.8
2022-12-11T02:22:11.859Z,1.5
2022-12-11T02:24:21.942Z,0.8
2022-12-11T02:26:17.900Z,1.2
2022-12-11T02:28:11.349Z,0.9
2022-12-11T02:30:07.207Z,0.9
2022-12-11T02:32:09.532Z,1.1
2022-12-11T02:34:09.062Z,1.1
2022-12-11T02:36:05.353Z,0.9
2022-12-11T02:38:08.760Z,1.0
2022-12-11T02:40:06.973Z,1.0
2022-12-11T02:42:05.713Z,5.0
2022-12-11T02:44:05.121Z,2.0
2022-12-11T02:46:06.433Z,0.9
2022-12-11T02:48:05.990Z,1.2
2022-12-11T02:50:07.274Z,3.4
2022-12-11T02:52:06.581Z,1.4
2022-12-11T02:54:04.900Z,2.4
2022-12-11T02:56:10.375Z,2.7
2022-12-11T02:58:07.317Z,4.3
2022-12-11T03:00:05.281Z,8.8
2022-12-11T03:02:04.847Z,9.6
2022-12-11T03:04:04.606Z,8.9
2022-12-11T03:06:03.558Z,6.8
2022-12-11T03:08:04.038Z,9.3
2022-12-11T03:10:04.291Z,6.7
2022-12-11T03:12:03.187Z,8.0
2022-12-11T03:14:04.464Z,6.7
2022-12-11T03:16:12.393Z,10.6
2022-12-11T03:18:10.878Z,8.6
2022-12-11T03:20:11.629Z,7.9
2022-12-11T03:22:09.737Z,3.2
2022-12-11T03:24:08.803Z,2.5
2022-12-11T03:26:05.785Z,2.3
2022-12-11T03:28:11.096Z,1.8
2022-12-11T03:30:08.037Z,2.7
2022-12-11T03:32:08.873Z,4.6
2022-12-11T03:34:10.974Z,1.8
2022-12-11T03:36:09.500Z,1.3
2022-12-11T03:38:08.415Z,1.9
2022-12-11T03:40:10.146Z,3.6
2022-12-11T03:42:06.713Z,5.9
2022-12-11T03:44:03.959Z,8.1
2022-12-11T03:46:03.874Z,10.8
2022-12-11T03:48:04.259Z,6.6
2022-12-11T03:50:06.046Z,4.1
2022-12-11T03:52:04.992Z,2.4
2022-12-11T03:54:03.493Z,3.3
2022-12-11T03:56:05.234Z,2.0
2022-12-11T03:58:03.632Z,5.1
2022-12-11T04:00:05.356Z,2.2
2022-12-11T04:02:10.257Z,3.4
2022-12-11T04:04:03.607Z,4.8
2022-12-11T04:06:03.029Z,2.3
2022-12-11T04:08:03.287Z,2.4
2022-12-11T04:10:04.207Z,7.7
2022-12-11T04:12:03.815Z,2.5
2022-12-11T04:14:12.359Z,2.4
2022-12-11T04:16:02.956Z,3.2
2022-12-11T04:18:12.868Z,2.4
2022-12-11T04:20:13.226Z,2.7
2022-12-11T04:22:12.755Z,2.6
2022-12-11T04:24:12.898Z,2.3
2022-12-11T04:26:08.235Z,1.6
2022-12-11T04:28:02.893Z,1.8
2022-12-11T04:30:03.241Z,1.4
2022-12-11T04:32:03.744Z,2.4
2022-12-11T04:34:02.910Z,1.8
2022-12-11T04:36:03.142Z,1.9
2022-12-11T04:38:03.015Z,2.2
2022-12-11T04:40:04.374Z,2.4
2022-12-11T04:42:02.884Z,1.7
2022-12-11T04:44:03.636Z,1.7
2022-12-11T04:46:04.361Z,1.6
2022-12-11T04:48:03.659Z,2.8
2022-12-11T04:50:04.914Z,1.8
2022-12-11T04:52:03.741Z,1.5
2022-12-11T04:54:02.895Z,1.7
2022-12-11T04:56:06.042Z,1.3
2022-12-11T04:58:02.935Z,1.6
2022-12-11T05:00:04.634Z,1.4
2022-12-11T05:02:03.356Z,1.2
2022-12-11T05:04:02.987Z,1.7
2022-12-11T05:06:03.509Z,1.3
2022-12-11T05:08:03.269Z,1.4
2022-12-11T05:10:03.970Z,2.3
2022-12-11T05:12:04.107Z,1.6
2022-12-11T05:14:02.916Z,1.9
2022-12-11T05:16:04.844Z,1.3
2022-12-11T05:18:02.911Z,1.4
2022-12-11T05:20:04.402Z,1.7
2022-12-11T05:22:02.946Z,1.3
2022-12-11T05:24:04.158Z,1.3
2022-12-11T05:26:05.701Z,1.4
2022-12-11T05:28:02.888Z,1.4
2022-12-11T05:30:02.963Z,1.2
2022-12-11T05:32:03.032Z,1.2
2022-12-11T05:34:03.169Z,1.5
2022-12-11T05:36:04.506Z,1.6
2022-12-11T05:38:02.951Z,1.8
2022-12-11T05:40:05.835Z,1.7
2022-12-11T05:42:02.894Z,1.9
2022-12-11T05:44:03.079Z,1.8
2022-12-11T05:46:09.600Z,2.1
2022-12-11T05:48:03.167Z,2.0
2022-12-11T05:50:03.015Z,1.8
2022-12-11T05:52:03.485Z,2.2
2022-12-11T05:54:03.827Z,1.8
2022-12-11T05:56:03.520Z,1.9
2022-12-11T05:58:03.897Z,1.7
2022-12-11T06:00:03.099Z,1.9
2022-12-11T06:02:03.092Z,2.0
2022-12-11T06:04:05.339Z,1.7
2022-12-11T06:06:03.751Z,2.2
2022-12-11T06:08:03.222Z,2.4
2022-12-11T06:10:03.108Z,1.8
2022-12-11T06:12:03.113Z,1.6
2022-12-11T06:14:04.619Z,1.8
2022-12-11T06:16:04.401Z,1.9
2022-12-11T06:18:02.907Z,2.5
2022-12-11T06:20:03.287Z,1.7
2022-12-11T06:22:03.023Z,2.4
2022-12-11T06:24:05.222Z,1.7
2022-12-11T06:26:05.195Z,1.8
2022-12-11T06:28:02.885Z,1.6
2022-12-11T06:30:03.954Z,2.0
2022-12-11T06:32:03.065Z,1.6
2022-12-11T06:34:03.796Z,1.5
2022-12-11T06:36:05.002Z,1.4
2022-12-11T06:38:03.543Z,1.4
2022-12-11T06:40:03.893Z,1.4
2022-12-11T06:42:02.877Z,1.4
2022-12-11T06:44:03.186Z,1.3
2022-12-11T06:46:04.625Z,1.3
2022-12-11T06:48:03.784Z,1.0
2022-12-11T06:50:03.023Z,1.1
2022-12-11T06:52:02.905Z,1.4
2022-12-11T06:54:02.951Z,0.9
2022-12-11T06:56:04.997Z,0.8
2022-12-11T06:58:02.942Z,0.8
2022-12-11T07:00:03.211Z,1.0
2022-12-11T07:02:03.600Z,0.8
2022-12-11T07:04:03.486Z,0.9
2022-12-11T07:06:03.807Z,1.0
2022-12-11T07:08:03.400Z,0.8
2022-12-11T07:10:07.891Z,0.9
2022-12-11T07:12:03.656Z,1.3
2022-12-11T07:14:03.723Z,0.8
2022-12-11T07:16:10.159Z,0.8
2022-12-11T07:18:02.740Z,0.8
2022-12-11T07:20:04.618Z,0.9
2022-12-11T07:22:02.938Z,0.9
2022-12-11T07:24:04.457Z,0.9
2022-12-11T07:26:06.086Z,1.1
2022-12-11T07:28:02.936Z,1.1
2022-12-11T07:30:02.944Z,1.0
2022-12-11T07:32:03.947Z,1.1
2022-12-11T07:34:06.166Z,1.0
2022-12-11T07:36:05.035Z,1.1
2022-12-11T07:38:03.080Z,1.6
2022-12-11T07:40:02.899Z,1.4
2022-12-11T07:42:02.884Z,1.1
2022-12-11T07:44:04.050Z,1.1
2022-12-11T07:46:04.007Z,1.0
2022-12-11T07:48:03.108Z,1.3
2022-12-11T07:50:02.928Z,1.2
2022-12-11T07:52:02.899Z,1.0
2022-12-11T07:54:06.076Z,1.4
2022-12-11T07:56:02.961Z,1.4
2022-12-11T07:58:02.937Z,1.4
2022-12-11T08:00:04.762Z,1.7
2022-12-11T08:02:03.073Z,2.7
2022-12-11T08:04:04.853Z,1.4
2022-12-11T08:06:03.157Z,2.0
2022-12-11T08:08:03.804Z,1.9
2022-12-11T08:10:03.548Z,2.9
2022-12-11T08:12:03.303Z,1.9
2022-12-11T08:14:04.908Z,2.4
2022-12-11T08:16:05.627Z,2.2
2022-12-11T08:18:02.978Z,2.2
2022-12-11T08:20:03.065Z,1.8
2022-12-11T08:22:02.856Z,1.7
2022-12-11T08:24:03.221Z,4.0
2022-12-11T08:26:04.279Z,2.2
2022-12-11T08:28:03.083Z,1.9
2022-12-11T08:30:03.119Z,2.2
2022-12-11T08:32:06.385Z,1.8
2022-12-11T08:34:02.887Z,1.6
2022-12-11T08:36:05.353Z,2.2
2022-12-11T08:38:02.935Z,1.8
2022-12-11T08:40:03.279Z,1.2
2022-12-11T08:42:02.906Z,2.3
2022-12-11T08:44:02.950Z,1.3
2022-12-11T08:46:02.989Z,1.2
2022-12-11T08:48:03.671Z,1.0
2022-12-11T08:50:03.829Z,1.1
2022-12-11T08:52:05.138Z,1.3
2022-12-11T08:54:02.878Z,1.1
2022-12-11T08:56:03.944Z,1.0
2022-12-11T08:58:03.325Z,1.1
2022-12-11T09:00:03.282Z,1.2
2022-12-11T09:02:03.102Z,1.1
2022-12-11T09:04:02.959Z,1.3
2022-12-11T09:06:05.634Z,1.4
2022-12-11T09:08:02.979Z,1.3
2022-12-11T09:10:04.259Z,1.1
2022-12-11T09:12:04.244Z,1.5
2022-12-11T09:14:07.609Z,1.7
2022-12-11T09:16:05.500Z,1.2
2022-12-11T09:18:03.472Z,1.8
2022-12-11T09:20:03.143Z,1.2
2022-12-11T09:22:03.542Z,1.0
2022-12-11T09:24:04.325Z,1.2
2022-12-11T09:26:05.512Z,1.1
2022-12-11T09:28:02.894Z,1.3
2022-12-11T09:30:03.174Z,1.7
2022-12-11T09:32:02.911Z,1.9
2022-12-11T09:34:05.658Z,1.7
2022-12-11T09:36:05.044Z,1.7
2022-12-11T09:38:02.962Z,2.0
2022-12-11T09:40:07.512Z,1.7
2022-12-11T09:42:09.414Z,2.7
2022-12-11T09:44:13.778Z,2.1
2022-12-11T09:46:07.462Z,2.5
2022-12-11T09:48:04.100Z,2.3
2022-12-11T09:50:11.345Z,1.8
2022-12-11T09:52:12.923Z,2.3
2022-12-11T09:54:04.919Z,2.2
2022-12-11T09:56:12.937Z,2.2
2022-12-11T09:58:14.566Z,2.5
2022-12-11T10:00:12.859Z,1.7
2022-12-11T10:02:15.421Z,1.8
2022-12-11T10:04:19.118Z,2.0
2022-12-11T10:06:11.595Z,2.1
2022-12-11T10:08:12.802Z,1.8
2022-12-11T10:10:13.759Z,1.6
2022-12-11T10:12:18.868Z,1.9
2022-12-11T10:14:12.470Z,2.2
2022-12-11T10:16:09.715Z,1.5
2022-12-11T10:18:07.261Z,1.6
2022-12-11T10:20:16.748Z,1.5
2022-12-11T10:22:03.463Z,1.7
2022-12-11T10:24:10.902Z,2.0
2022-12-11T10:26:07.229Z,1.4
2022-12-11T10:28:13.581Z,1.8
2022-12-11T10:30:15.864Z,1.9
2022-12-11T10:32:05.074Z,1.4
2022-12-11T10:34:05.246Z,1.6
2022-12-11T10:36:03.383Z,1.3
2022-12-11T10:38:13.987Z,1.5
2022-12-11T10:40:03.087Z,1.1
2022-12-11T10:42:16.369Z,1.4
2022-12-11T10:44:17.289Z,1.4
2022-12-11T10:46:04.229Z,1.2
2022-12-11T10:48:04.051Z,1.3
2022-12-11T10:50:04.744Z,1.0
2022-12-11T10:52:11.737Z,1.0
2022-12-11T10:54:09.753Z,1.0
2022-12-11T10:56:04.159Z,1.1
2022-12-11T10:58:06.223Z,1.3
2022-12-11T11:00:06.216Z,1.4
2022-12-11T11:02:04.491Z,1.0
2022-12-11T11:04:07.123Z,0.8
2022-12-11T11:06:06.719Z,0.8
2022-12-11T11:08:13.157Z,0.7
2022-12-11T11:10:14.448Z,0.7
2022-12-11T11:12:07.869Z,0.7
2022-12-11T11:14:13.683Z,0.9
2022-12-11T11:16:05.815Z,0.9
2022-12-11T11:18:11.947Z,1.2
2022-12-11T11:20:13.122Z,0.9
2022-12-11T11:22:07.276Z,0.9
2022-12-11T11:24:04.176Z,1.5
2022-12-11T11:26:08.673Z,0.7
2022-12-11T11:28:05.284Z,0.6
2022-12-11T11:30:05.958Z,0.7
2022-12-11T11:32:16.741Z,0.8
2022-12-11T11:34:10.077Z,0.8
2022-12-11T11:36:06.880Z,0.7
2022-12-11T11:38:14.842Z,0.6
2022-12-11T11:40:12.131Z,0.7
2022-12-11T11:42:11.016Z,0.7
2022-12-11T11:44:07.880Z,0.8
2022-12-11T11:46:09.343Z,0.7
2022-12-11T11:48:13.309Z,0.8
2022-12-11T11:50:09.246Z,0.9
2022-12-11T11:52:12.581Z,0.8
2022-12-11T11:54:16.189Z,0.8
2022-12-11T11:56:12.748Z,0.9
2022-12-11T11:58:07.831Z,0.7
2022-12-11T12:00:10.399Z,0.7
2022-12-11T12:02:13.013Z,0.7
2022-12-11T12:04:04.764Z,0.7
2022-12-11T12:06:14.953Z,0.8
2022-12-11T12:08:14.623Z,1.3
2022-12-11T12:10:15.646Z,1.1
2022-12-11T12:12:17.163Z,1.3
2022-12-11T12:14:43.522Z,1.7
2022-12-11T12:16:17.688Z,3.8
2022-12-11T12:18:12.460Z,4.6
2022-12-11T12:20:10.678Z,3.8
2022-12-11T12:22:10.519Z,3.8
2022-12-11T12:24:15.889Z,5.3
2022-12-11T12:26:09.712Z,11.1
2022-12-11T12:28:15.626Z,9.7
2022-12-11T12:30:06.462Z,9.1
2022-12-11T12:32:13.390Z,5.0
2022-12-11T12:34:10.676Z,3.7
2022-12-11T12:36:12.052Z,3.1
2022-12-11T12:38:07.498Z,6.2
2022-12-11T12:40:13.363Z,8.7
2022-12-11T12:42:11.122Z,12.3
2022-12-11T12:44:15.024Z,11.7
2022-12-11T12:46:13.484Z,11.7
2022-12-11T12:48:03.688Z,10.6
2022-12-11T12:50:05.247Z,9.4
2022-12-11T12:52:05.540Z,6.6
2022-12-11T12:54:12.234Z,6.7
2022-12-11T12:56:04.970Z,6.1
2022-12-11T12:58:06.009Z,3.2
2022-12-11T13:00:09.563Z,4.0
2022-12-11T13:02:04.984Z,5.2
2022-12-11T13:04:05.286Z,4.0
2022-12-11T13:06:06.974Z,3.4
2022-12-11T13:08:06.448Z,2.5
2022-12-11T13:10:07.553Z,2.2
2022-12-11T13:12:14.482Z,1.7
2022-12-11T13:14:05.952Z,2.4
2022-12-11T13:16:21.953Z,2.5
2022-12-11T13:18:07.904Z,2.6
2022-12-11T13:20:11.920Z,2.8
2022-12-11T13:22:15.120Z,2.8
2022-12-11T13:24:15.657Z,5.3
2022-12-11T13:26:05.122Z,8.3
2022-12-11T13:28:08.428Z,10.7
2022-12-11T13:30:07.975Z,10.3
2022-12-11T13:32:15.840Z,8.6
2022-12-11T13:34:17.230Z,8.3
2022-12-11T13:36:24.795Z,7.0
2022-12-11T13:38:08.512Z,6.4
2022-12-11T13:40:08.117Z,6.7
2022-12-11T13:42:07.057Z,5.2
2022-12-11T13:44:05.376Z,5.5
2022-12-11T13:46:05.789Z,4.1
2022-12-11T13:48:03.138Z,5.0
2022-12-11T13:50:15.389Z,5.1
2022-12-11T13:52:04.565Z,5.8
2022-12-11T13:54:05.717Z,6.2
2022-12-11T13:56:04.852Z,5.6
2022-12-11T13:58:03.116Z,4.3
2022-12-11T14:00:02.950Z,7.1
2022-12-11T14:02:10.628Z,6.7
2022-12-11T14:04:07.134Z,6.6
2022-12-11T14:06:04.383Z,7.9
2022-12-11T14:08:08.507Z,6.3
2022-12-11T14:10:09.146Z,6.2
2022-12-11T14:12:03.527Z,4.7
2022-12-11T14:14:07.160Z,5.4
2022-12-11T14:16:04.091Z,6.8
2022-12-11T14:18:05.498Z,7.0
2022-12-11T14:20:07.635Z,6.7
2022-12-11T14:22:05.379Z,6.0
2022-12-11T14:24:06.117Z,8.6
2022-12-11T14:26:12.412Z,9.2
2022-12-11T14:28:03.365Z,11.0
2022-12-11T14:30:12.240Z,9.5
2022-12-11T14:32:07.170Z,10.4
2022-12-11T14:34:09.777Z,10.5
2022-12-11T14:36:04.152Z,10.7
2022-12-11T14:38:09.246Z,11.3
2022-12-11T14:40:09.154Z,12.4
2022-12-11T14:42:08.477Z,12.6
2022-12-11T14:44:07.086Z,13.4
2022-12-11T14:46:08.224Z,13.2
2022-12-11T14:48:08.294Z,13.3
2022-12-11T14:50:07.006Z,11.7
2022-12-11T14:52:04.826Z,10.9
2022-12-11T14:54:04.974Z,9.2
2022-12-11T14:56:06.540Z,8.8
2022-12-11T14:58:07.285Z,10.1
2022-12-11T15:00:05.693Z,11.3
2022-12-11T15:02:22.227Z,10.0
2022-12-11T15:04:06.051Z,9.5
2022-12-11T15:06:14.197Z,9.2
2022-12-11T15:08:14.395Z,7.7
2022-12-11T15:10:03.515Z,5.9
2022-12-11T15:12:11.767Z,4.8
2022-12-11T15:14:05.895Z,2.6
2022-12-11T15:16:05.596Z,1.8
2022-12-11T15:18:13.202Z,1.4
2022-12-11T15:20:08.011Z,2.1
2022-12-11T15:22:04.255Z,4.5
2022-12-11T15:24:06.570Z,5.2
2022-12-11T15:26:03.188Z,6.4
2022-12-11T15:28:02.942Z,6.4
2022-12-11T15:30:26.298Z,5.3
2022-12-11T15:32:14.745Z,3.4
2022-12-11T15:34:03.168Z,3.4
2022-12-11T15:36:06.312Z,1.9
2022-12-11T15:38:03.143Z,1.5
2022-12-11T15:40:04.979Z,1.5
2022-12-11T15:42:03.237Z,2.2
2022-12-11T15:44:05.048Z,1.8
2022-12-11T15:46:05.251Z,1.9
2022-12-11T15:48:03.081Z,1.6
2022-12-11T15:50:13.632Z,1.7
2022-12-11T15:52:03.004Z,4.9
2022-12-11T15:54:03.104Z,5.0
2022-12-11T15:56:03.947Z,4.0
2022-12-11T15:58:06.423Z,7.0
2022-12-11T16:00:05.145Z,7.1
2022-12-11T16:02:03.490Z,5.2
2022-12-11T16:04:05.077Z,6.9
2022-12-11T16:06:03.095Z,4.2
2022-12-11T16:08:02.913Z,4.0
2022-12-11T16:10:04.168Z,9.4
2022-12-11T16:12:02.889Z,8.0
2022-12-11T16:14:04.032Z,6.0
2022-12-11T16:16:02.915Z,8.6
2022-12-11T16:18:05.374Z,8.6
2022-12-11T16:20:02.915Z,15.2
2022-12-11T16:22:03.382Z,20.0
2022-12-11T16:24:02.909Z,21.2
2022-12-11T16:26:08.846Z,19.6
2022-12-11T16:28:03.814Z,16.4
2022-12-11T16:30:03.213Z,17.8
2022-12-11T16:32:02.959Z,21.8
2022-12-11T16:34:03.115Z,23.4
2022-12-11T16:36:03.602Z,20.9
2022-12-11T16:38:02.959Z,21.5
2022-12-11T16:40:02.929Z,21.4
2022-12-11T16:42:04.017Z,17.4
2022-12-11T16:44:03.377Z,15.7
2022-12-11T16:46:03.325Z,12.1
2022-12-11T16:48:05.217Z,13.4
2022-12-11T16:50:03.543Z,13.3
2022-12-11T16:52:02.922Z,11.4
2022-12-11T16:54:03.850Z,10.6
2022-12-11T16:56:05.122Z,7.2
2022-12-11T16:58:03.101Z,5.4
2022-12-11T17:00:05.016Z,4.4
2022-12-11T17:02:03.053Z,5.8
2022-12-11T17:04:02.935Z,4.8
2022-12-11T17:06:07.336Z,4.6
2022-12-11T17:08:03.013Z,4.4
2022-12-11T17:10:04.617Z,2.7
2022-12-11T17:12:03.042Z,2.8
2022-12-11T17:14:03.481Z,2.5
2022-12-11T17:16:05.691Z,2.7
2022-12-11T17:18:03.112Z,2.4
2022-12-11T17:20:03.795Z,2.2
2022-12-11T17:22:04.145Z,2.5
2022-12-11T17:24:02.910Z,3.6
2022-12-11T17:26:04.524Z,2.9
2022-12-11T17:28:03.075Z,2.3
2022-12-11T17:30:03.990Z,1.9
2022-12-11T17:32:03.361Z,1.8
2022-12-11T17:34:03.725Z,1.5
2022-12-11T17:36:04.621Z,1.4
2022-12-11T17:38:03.672Z,1.4
2022-12-11T17:40:03.121Z,1.3
2022-12-11T17:42:03.848Z,1.6
2022-12-11T17:44:02.925Z,1.4
2022-12-11T17:46:05.033Z,1.3
2022-12-11T17:48:02.902Z,1.6
2022-12-11T17:50:03.147Z,1.6
2022-12-11T17:52:03.089Z,2.4
2022-12-11T17:54:04.233Z,4.0
2022-12-11T17:56:05.286Z,2.8
2022-12-11T17:58:03.822Z,2.1
2022-12-11T18:00:02.917Z,1.6
2022-12-11T18:02:03.055Z,2.5
2022-12-11T18:04:03.557Z,1.8
2022-12-11T18:06:07.394Z,1.6
2022-12-11T18:08:03.577Z,1.9
2022-12-11T18:10:03.211Z,2.9
2022-12-11T18:12:02.911Z,3.3
2022-12-11T18:14:03.884Z,4.7
2022-12-11T18:16:05.308Z,4.9
2022-12-11T18:18:03.997Z,5.5
2022-12-11T18:20:02.927Z,4.5
2022-12-11T18:22:03.757Z,8.0
2022-12-11T18:24:03.581Z,7.1
2022-12-11T18:26:02.971Z,6.6
2022-12-11T18:28:02.892Z,5.9
2022-12-11T18:30:03.398Z,7.3
2022-12-11T18:32:03.076Z,2.3
2022-12-11T18:34:04.926Z,2.0
2022-12-11T18:36:04.137Z,1.6
2022-12-11T18:38:03.374Z,1.4
2022-12-11T18:40:04.292Z,1.3
2022-12-11T18:42:31.914Z,1.3
2022-12-11T18:44:06.653Z,1.4
2022-12-11T18:46:05.653Z,1.2
2022-12-11T18:48:02.891Z,1.6
2022-12-11T18:50:07.600Z,1.2
2022-12-11T18:52:03.295Z,1.8
2022-12-11T18:54:03.098Z,1.5
2022-12-11T18:56:08.249Z,1.9
2022-12-11T18:58:03.263Z,1.6
2022-12-11T19:00:06.888Z,1.7
2022-12-11T19:02:04.023Z,2.1
2022-12-11T19:04:05.603Z,21.1
2022-12-11T19:06:11.415Z,1.7
2022-12-11T19:08:04.001Z,1.6
2022-12-11T19:10:03.833Z,1.6
2022-12-11T19:12:02.898Z,1.7
2022-12-11T19:14:05.192Z,2.0
2022-12-11T19:16:03.105Z,2.0
2022-12-11T19:18:02.951Z,1.6
2022-12-11T19:20:25.178Z,1.9
2022-12-11T19:22:04.381Z,2.2
2022-12-11T19:24:03.854Z,1.8
2022-12-11T19:26:03.566Z,1.8
2022-12-11T19:28:03.076Z,1.7
2022-12-11T19:30:03.169Z,1.6
2022-12-11T19:32:04.212Z,1.4
2022-12-11T19:34:04.107Z,1.3
2022-12-11T19:36:03.912Z,1.2
2022-12-11T19:38:03.022Z,0.9
2022-12-11T19:40:03.719Z,1.1
2022-12-11T19:42:02.969Z,1.1
2022-12-11T19:44:02.955Z,1.0
2022-12-11T19:46:04.682Z,1.0
2022-12-11T19:48:03.332Z,1.0
2022-12-11T19:50:03.050Z,1.3
2022-12-11T19:52:04.116Z,1.5
2022-12-11T19:54:03.919Z,1.1
2022-12-11T19:56:04.635Z,1.1
2022-12-11T19:58:03.256Z,1.4
2022-12-11T20:00:02.996Z,1.2
2022-12-11T20:02:03.073Z,1.3
2022-12-11T20:04:05.379Z,1.1
2022-12-11T20:06:05.877Z,1.3
2022-12-11T20:08:35.353Z,1.4
2022-12-11T20:10:03.302Z,1.3
2022-12-11T20:12:05.666Z,1.4
2022-12-11T20:14:04.629Z,1.5
2022-12-11T20:16:07.515Z,1.4
2022-12-11T20:18:03.290Z,1.7
2022-12-11T20:20:03.159Z,2.0
2022-12-11T20:22:03.341Z,1.9
2022-12-11T20:24:02.931Z,2.0
2022-12-11T20:26:06.857Z,1.5
2022-12-11T20:28:03.077Z,1.5
2022-12-11T20:30:03.667Z,1.4
2022-12-11T20:32:03.022Z,1.5
2022-12-11T20:34:04.738Z,1.5
2022-12-11T20:36:07.688Z,1.4
2022-12-11T20:38:03.467Z,1.4
2022-12-11T20:40:03.577Z,1.6
2022-12-11T20:42:04.468Z,1.6
2022-12-11T20:44:02.997Z,1.6
2022-12-11T20:46:06.744Z,2.1
2022-12-11T20:48:02.924Z,2.3
2022-12-11T20:50:03.313Z,1.8
2022-12-11T20:52:04.155Z,2.8
2022-12-11T20:54:03.117Z,2.8
2022-12-11T20:56:08.689Z,2.8
2022-12-11T20:58:03.094Z,2.4
2022-12-11T21:00:04.135Z,4.0
2022-12-11T21:02:04.636Z,3.9
2022-12-11T21:04:03.071Z,2.8
2022-12-11T21:06:03.757Z,3.0
2022-12-11T21:08:03.183Z,3.7
2022-12-11T21:10:03.366Z,3.8
2022-12-11T21:12:04.086Z,4.7
2022-12-11T21:14:02.988Z,4.2
2022-12-11T21:16:05.300Z,3.7
2022-12-11T21:18:03.834Z,4.6
2022-12-11T21:20:02.934Z,4.3
2022-12-11T21:22:04.025Z,4.0
2022-12-11T21:24:02.982Z,4.6
2022-12-11T21:26:04.066Z,4.7
2022-12-11T21:28:02.951Z,4.9
2022-12-11T21:30:04.958Z,4.8
2022-12-11T21:32:03.028Z,4.3
2022-12-11T21:34:04.711Z,4.0
2022-12-11T21:36:05.397Z,3.8
2022-12-11T21:38:03.061Z,3.6
2022-12-11T21:40:02.988Z,3.1
2022-12-11T21:42:03.693Z,4.0
2022-12-11T21:46:03.224Z,4.0
2022-12-11T21:48:03.768Z,3.5
2022-12-11T21:50:04.296Z,3.5
2022-12-11T21:52:03.672Z,3.7
2022-12-11T21:54:04.752Z,3.5
2022-12-11T21:56:07.211Z,3.4
2022-12-11T21:58:02.971Z,4.6
2022-12-11T22:00:03.996Z,3.5
2022-12-11T22:02:03.197Z,4.7
2022-12-11T22:04:04.510Z,4.1
2022-12-11T22:06:03.995Z,3.9
2022-12-11T22:08:03.805Z,4.6
2022-12-11T22:10:03.075Z,4.8
2022-12-11T22:12:02.950Z,3.6
2022-12-11T22:14:03.880Z,4.7
2022-12-11T22:16:03.712Z,4.6
2022-12-11T22:18:03.943Z,4.6
2022-12-11T22:20:04.083Z,4.2
2022-12-11T22:22:02.952Z,5.3
2022-12-11T22:24:03.637Z,4.5
2022-12-11T22:26:02.917Z,4.9
2022-12-11T22:28:03.272Z,5.7
2022-12-11T22:30:04.365Z,5.4
2022-12-11T22:32:04.156Z,4.8
2022-12-11T22:34:03.450Z,5.0
2022-12-11T22:36:02.992Z,5.1
2022-12-11T22:38:04.109Z,4.6
2022-12-11T22:40:03.090Z,6.1
2022-12-11T22:42:03.281Z,4.5
2022-12-11T22:44:03.118Z,5.5
2022-12-11T22:46:03.106Z,4.8
2022-12-11T22:48:03.533Z,4.9
2022-12-11T22:50:02.957Z,5.5
2022-12-11T22:52:02.937Z,3.4
2022-12-11T22:54:03.415Z,4.3
2022-12-11T22:56:05.522Z,5.2
2022-12-11T22:58:03.458Z,3.9
2022-12-11T23:00:02.947Z,5.0
2022-12-11T23:02:03.402Z,3.8
2022-12-11T23:04:03.698Z,3.9
2022-12-11T23:06:07.856Z,3.8
2022-12-11T23:08:03.199Z,4.4
2022-12-11T23:10:03.823Z,3.7
2022-12-11T23:12:03.605Z,3.7
2022-12-11T23:14:05.030Z,3.5
2022-12-11T23:16:02.904Z,4.0
2022-12-11T23:18:03.399Z,4.4
2022-12-11T23:20:05.357Z,3.8
2022-12-11T23:22:03.492Z,3.7
2022-12-11T23:24:04.045Z,3.3
2022-12-11T23:26:04.639Z,3.2
2022-12-11T23:28:03.101Z,3.4
2022-12-11T23:30:03.137Z,2.9
2022-12-11T23:32:04.685Z,3.8
2022-12-11T23:34:03.706Z,2.9
2022-12-11T23:36:04.760Z,2.7
2022-12-11T23:38:03.507Z,2.5
2022-12-11T23:40:02.967Z,3.1
2022-12-11T23:42:03.854Z,2.7
2022-12-11T23:44:03.613Z,2.9
2022-12-11T23:46:03.107Z,3.2
2022-12-11T23:48:03.098Z,2.7
2022-12-11T23:50:02.956Z,2.7
2022-12-11T23:52:03.298Z,2.2
2022-12-11T23:54:03.272Z,2.5
2022-12-11T23:56:07.116Z,2.9
2022-12-11T23:58:02.939Z,2.3
